COWK1: Cowskin Creek at 119th N. Wichita, KS

                                SHEF ID:       COWK1     COWSKIN C AT 119TH ST AT WICHITA
STATION TYPE:
Regulating: Stage = 18.00, Flow = 1603

PRECIP STAGE RIV-FLOW BAT-LOAD
in ft cfs volt
Ccp-Rev Ccp-Rev Ccp-Rev Ccp-Rev
(America/Chicago)
04/26 00:00 0.00 7.11 5 12.63
04/26 01:00 0.00 7.10 5 12.61
04/26 02:00 0.00 7.09 5 12.59
04/26 03:00 0.00 7.89 32 12.57
04/26 04:00 0.00 9.19 90 12.54
04/26 05:00 0.00 9.92 137 12.53
04/26 06:00 0.00 10.39 173 12.51
04/26 07:00 0.00 10.68 197 12.51
04/26 08:00 0.00 10.82 210 12.51
04/26 09:00 0.00 10.81 209 12.54
04/26 10:00 0.00 10.74 202 12.60
04/26 11:00 0.00 10.61 191 12.76
04/26 12:00 0.00 10.43 176 13.23
04/26 13:00 0.00 10.22 159 13.09
04/26 14:00 0.00 10.01 143 12.79
04/26 15:00 0.00 9.85 132 12.71
04/26 16:00 0.00 9.71 122 12.91
04/26 17:00 0.00 9.58 114 13.29
04/26 18:00 0.00 9.46 106 13.21
04/26 19:00 0.00 9.35 100 12.93
04/26 20:00 0.00 9.24 93 12.77
04/26 21:00 0.00 9.13 87 12.70
04/26 22:00 0.00 9.02 81 12.65
04/26 23:00 ---- 8.91 76 12.60
Data processed at Mon 27Apr2026 04:41 GMT

NOTICE: If you are parsing this page

Please convert to using our Data API. Starting early 2026 we will be migrating to: https://water.usace.army.mil with modern pages rendered in JavaScript. When this migration completes you will no longer be able to scrape this page! CWMSDataAPI (CDA)

Timeseries IDs (TSIDs)

TSIDs used from left to right in the data table
WIT2.Precip-Inc.Total.1Hour.1Hour.Ccp-Rev
WIT2.Stage.Inst.1Hour.0.Ccp-Rev
WIT2.Flow.Inst.1Hour.0.Ccp-Rev
WIT2.Volt-Battery Load.Inst.1Hour.0.Ccp-Rev

                            

All information presented herein is the property of the government of the United States of America and may be revised or deleted at any time without prior notice. Dissemination of this information without the expressed written consent of the Public Affairs Office, Tulsa District U.S. Army Corps of Engineers is strictly prohibited. These data are gathered electronically and, as presented, have NOT undergone any form of quality control. These data are NOT guaranteed to be valid or correct.